sensor_id;sensor_type;location;lat;lon;timestamp;P1;durP1;ratioP1;P2;durP2;ratioP2
1400;SDS011;46518;48.842;8.926;2023-09-08T00:01:23;6.45;;;5.80;;
1400;SDS011;46518;48.842;8.926;2023-09-08T00:03:53;7.90;;;7.10;;
1400;SDS011;46518;48.842;8.926;2023-09-08T00:06:21;7.10;;;6.38;;
1400;SDS011;46518;48.842;8.926;2023-09-08T00:08:49;7.72;;;6.93;;
1400;SDS011;46518;48.842;8.926;2023-09-08T00:11:17;8.55;;;7.63;;
1400;SDS011;46518;48.842;8.926;2023-09-08T00:13:46;8.63;;;7.82;;
1400;SDS011;46518;48.842;8.926;2023-09-08T00:16:14;10.45;;;7.47;;
1400;SDS011;46518;48.842;8.926;2023-09-08T00:18:42;8.60;;;7.80;;
1400;SDS011;46518;48.842;8.926;2023-09-08T00:21:12;8.50;;;7.60;;
1400;SDS011;46518;48.842;8.926;2023-09-08T00:23:40;8.25;;;7.40;;
1400;SDS011;46518;48.842;8.926;2023-09-08T00:26:08;8.45;;;7.72;;
1400;SDS011;46518;48.842;8.926;2023-09-08T00:28:37;7.60;;;6.90;;
1400;SDS011;46518;48.842;8.926;2023-09-08T00:31:05;8.77;;;7.32;;
1400;SDS011;46518;48.842;8.926;2023-09-08T00:33:33;7.57;;;6.85;;
1400;SDS011;46518;48.842;8.926;2023-09-08T00:36:02;7.65;;;6.85;;
1400;SDS011;46518;48.842;8.926;2023-09-08T00:38:32;8.98;;;8.18;;
1400;SDS011;46518;48.842;8.926;2023-09-08T00:41:01;8.32;;;7.45;;
1400;SDS011;46518;48.842;8.926;2023-09-08T00:43:30;8.65;;;7.80;;
1400;SDS011;46518;48.842;8.926;2023-09-08T00:45:58;7.45;;;6.70;;
1400;SDS011;46518;48.842;8.926;2023-09-08T00:48:29;7.13;;;6.53;;
1400;SDS011;46518;48.842;8.926;2023-09-08T00:50:58;8.00;;;7.20;;
1400;SDS011;46518;48.842;8.926;2023-09-08T00:53:27;7.82;;;6.55;;
1400;SDS011;46518;48.842;8.926;2023-09-08T00:55:57;7.63;;;6.88;;
1400;SDS011;46518;48.842;8.926;2023-09-08T00:58:28;8.68;;;7.45;;
1400;SDS011;46518;48.842;8.926;2023-09-08T01:00:56;7.63;;;6.82;;
1400;SDS011;46518;48.842;8.926;2023-09-08T01:03:25;7.65;;;6.95;;
1400;SDS011;46518;48.842;8.926;2023-09-08T01:05:54;8.23;;;7.50;;
1400;SDS011;46518;48.842;8.926;2023-09-08T01:08:23;8.52;;;7.72;;
1400;SDS011;46518;48.842;8.926;2023-09-08T01:10:52;8.82;;;8.07;;
1400;SDS011;46518;48.842;8.926;2023-09-08T01:13:22;8.35;;;7.53;;
1400;SDS011;46518;48.842;8.926;2023-09-08T01:15:50;10.32;;;9.38;;
1400;SDS011;46518;48.842;8.926;2023-09-08T01:18:19;7.38;;;6.68;;
1400;SDS011;46518;48.842;8.926;2023-09-08T01:20:53;8.63;;;7.47;;
1400;SDS011;46518;48.842;8.926;2023-09-08T01:23:50;7.57;;;6.88;;
1400;SDS011;46518;48.842;8.926;2023-09-08T01:26:35;7.82;;;7.10;;
1400;SDS011;46518;48.842;8.926;2023-09-08T01:29:04;7.30;;;6.60;;
1400;SDS011;46518;48.842;8.926;2023-09-08T01:31:34;7.50;;;6.93;;
1400;SDS011;46518;48.842;8.926;2023-09-08T01:34:04;7.55;;;6.85;;
1400;SDS011;46518;48.842;8.926;2023-09-08T01:36:34;9.32;;;7.13;;
1400;SDS011;46518;48.842;8.926;2023-09-08T01:39:02;7.78;;;7.07;;
1400;SDS011;46518;48.842;8.926;2023-09-08T01:41:31;8.82;;;7.75;;
1400;SDS011;46518;48.842;8.926;2023-09-08T01:44:00;8.15;;;7.35;;
1400;SDS011;46518;48.842;8.926;2023-09-08T01:46:35;8.98;;;7.82;;
1400;SDS011;46518;48.842;8.926;2023-09-08T01:49:03;8.82;;;7.90;;
1400;SDS011;46518;48.842;8.926;2023-09-08T01:51:32;7.80;;;7.05;;
1400;SDS011;46518;48.842;8.926;2023-09-08T01:54:00;7.40;;;6.70;;
1400;SDS011;46518;48.842;8.926;2023-09-08T01:56:28;9.13;;;8.25;;
1400;SDS011;46518;48.842;8.926;2023-09-08T01:58:56;7.50;;;6.82;;
1400;SDS011;46518;48.842;8.926;2023-09-08T02:01:27;7.18;;;6.43;;
1400;SDS011;46518;48.842;8.926;2023-09-08T02:03:56;9.57;;;8.60;;
1400;SDS011;46518;48.842;8.926;2023-09-08T02:06:24;8.95;;;8.10;;
1400;SDS011;46518;48.842;8.926;2023-09-08T02:08:52;10.55;;;7.40;;
1400;SDS011;46518;48.842;8.926;2023-09-08T02:11:21;7.13;;;6.40;;
1400;SDS011;46518;48.842;8.926;2023-09-08T02:13:49;7.35;;;6.35;;
1400;SDS011;46518;48.842;8.926;2023-09-08T02:16:17;8.30;;;7.50;;
1400;SDS011;46518;48.842;8.926;2023-09-08T02:18:51;9.10;;;7.72;;
1400;SDS011;46518;48.842;8.926;2023-09-08T02:21:19;7.55;;;6.80;;
1400;SDS011;46518;48.842;8.926;2023-09-08T02:23:49;6.90;;;6.30;;
1400;SDS011;46518;48.842;8.926;2023-09-08T02:26:17;8.82;;;7.93;;
1400;SDS011;46518;48.842;8.926;2023-09-08T02:28:45;8.52;;;6.20;;
1400;SDS011;46518;48.842;8.926;2023-09-08T02:31:13;8.55;;;7.65;;
1400;SDS011;46518;48.842;8.926;2023-09-08T02:33:41;7.72;;;7.00;;
1400;SDS011;46518;48.842;8.926;2023-09-08T02:36:11;7.43;;;6.70;;
1400;SDS011;46518;48.842;8.926;2023-09-08T02:38:40;8.27;;;7.32;;
1400;SDS011;46518;48.842;8.926;2023-09-08T02:41:08;8.23;;;7.45;;
1400;SDS011;46518;48.842;8.926;2023-09-08T02:43:37;9.02;;;7.75;;
1400;SDS011;46518;48.842;8.926;2023-09-08T02:46:05;8.52;;;7.30;;
1400;SDS011;46518;48.842;8.926;2023-09-08T02:48:33;7.50;;;6.70;;
1400;SDS011;46518;48.842;8.926;2023-09-08T02:51:01;8.57;;;7.45;;
1400;SDS011;46518;48.842;8.926;2023-09-08T02:53:32;8.70;;;7.30;;
1400;SDS011;46518;48.842;8.926;2023-09-08T02:56:02;7.60;;;6.90;;
1400;SDS011;46518;48.842;8.926;2023-09-08T02:58:32;8.63;;;7.30;;
1400;SDS011;46518;48.842;8.926;2023-09-08T03:01:11;7.72;;;7.03;;
1400;SDS011;46518;48.842;8.926;2023-09-08T03:03:42;7.15;;;6.50;;
1400;SDS011;46518;48.842;8.926;2023-09-08T03:06:11;9.02;;;8.13;;
1400;SDS011;46518;48.842;8.926;2023-09-08T03:08:41;8.38;;;7.60;;
1400;SDS011;46518;48.842;8.926;2023-09-08T03:11:09;9.10;;;7.97;;
1400;SDS011;46518;48.842;8.926;2023-09-08T03:13:39;9.30;;;8.23;;
1400;SDS011;46518;48.842;8.926;2023-09-08T03:16:09;9.20;;;8.38;;
1400;SDS011;46518;48.842;8.926;2023-09-08T03:18:37;8.63;;;7.75;;
1400;SDS011;46518;48.842;8.926;2023-09-08T03:21:06;8.70;;;7.80;;
1400;SDS011;46518;48.842;8.926;2023-09-08T03:23:38;8.73;;;7.65;;
1400;SDS011;46518;48.842;8.926;2023-09-08T03:26:08;9.13;;;7.28;;
1400;SDS011;46518;48.842;8.926;2023-09-08T03:28:37;8.35;;;7.55;;
1400;SDS011;46518;48.842;8.926;2023-09-08T03:31:06;8.73;;;7.85;;
1400;SDS011;46518;48.842;8.926;2023-09-08T03:33:39;9.75;;;7.88;;
1400;SDS011;46518;48.842;8.926;2023-09-08T03:36:10;8.43;;;7.70;;
1400;SDS011;46518;48.842;8.926;2023-09-08T03:38:38;9.30;;;7.30;;
1400;SDS011;46518;48.842;8.926;2023-09-08T03:41:09;8.05;;;7.22;;
1400;SDS011;46518;48.842;8.926;2023-09-08T03:43:37;8.13;;;7.32;;
1400;SDS011;46518;48.842;8.926;2023-09-08T03:46:06;7.65;;;6.95;;
1400;SDS011;46518;48.842;8.926;2023-09-08T03:48:34;8.48;;;7.63;;
1400;SDS011;46518;48.842;8.926;2023-09-08T03:51:02;8.40;;;7.68;;
1400;SDS011;46518;48.842;8.926;2023-09-08T03:53:31;8.10;;;7.30;;
1400;SDS011;46518;48.842;8.926;2023-09-08T03:56:00;9.63;;;7.95;;
1400;SDS011;46518;48.842;8.926;2023-09-08T03:58:29;12.00;;;7.95;;
1400;SDS011;46518;48.842;8.926;2023-09-08T04:00:58;7.63;;;6.93;;
1400;SDS011;46518;48.842;8.926;2023-09-08T04:03:26;7.55;;;6.85;;
1400;SDS011;46518;48.842;8.926;2023-09-08T04:05:56;8.25;;;7.55;;
1400;SDS011;46518;48.842;8.926;2023-09-08T04:08:24;9.07;;;8.27;;
1400;SDS011;46518;48.842;8.926;2023-09-08T04:10:53;8.60;;;7.70;;
1400;SDS011;46518;48.842;8.926;2023-09-08T04:13:21;9.48;;;8.40;;
1400;SDS011;46518;48.842;8.926;2023-09-08T04:15:51;8.90;;;8.00;;
1400;SDS011;46518;48.842;8.926;2023-09-08T04:18:19;8.68;;;7.85;;
1400;SDS011;46518;48.842;8.926;2023-09-08T04:20:48;9.07;;;8.18;;
1400;SDS011;46518;48.842;8.926;2023-09-08T04:23:16;9.60;;;8.70;;
1400;SDS011;46518;48.842;8.926;2023-09-08T04:25:45;9.60;;;8.70;;
1400;SDS011;46518;48.842;8.926;2023-09-08T04:28:13;8.55;;;7.38;;
1400;SDS011;46518;48.842;8.926;2023-09-08T04:30:42;10.23;;;9.13;;
1400;SDS011;46518;48.842;8.926;2023-09-08T04:33:12;8.55;;;7.65;;
1400;SDS011;46518;48.842;8.926;2023-09-08T04:35:40;9.60;;;8.77;;
1400;SDS011;46518;48.842;8.926;2023-09-08T04:38:08;9.23;;;8.40;;
1400;SDS011;46518;48.842;8.926;2023-09-08T04:40:39;8.02;;;7.28;;
1400;SDS011;46518;48.842;8.926;2023-09-08T04:43:09;9.43;;;8.43;;
1400;SDS011;46518;48.842;8.926;2023-09-08T04:45:37;8.40;;;7.57;;
1400;SDS011;46518;48.842;8.926;2023-09-08T04:48:06;8.52;;;7.63;;
1400;SDS011;46518;48.842;8.926;2023-09-08T04:50:36;10.27;;;9.20;;
1400;SDS011;46518;48.842;8.926;2023-09-08T04:53:04;9.25;;;8.00;;
1400;SDS011;46518;48.842;8.926;2023-09-08T04:55:33;9.73;;;8.73;;
1400;SDS011;46518;48.842;8.926;2023-09-08T04:58:03;8.93;;;8.05;;
1400;SDS011;46518;48.842;8.926;2023-09-08T05:00:32;9.77;;;8.80;;
1400;SDS011;46518;48.842;8.926;2023-09-08T05:03:01;10.35;;;9.18;;
1400;SDS011;46518;48.842;8.926;2023-09-08T05:05:30;9.02;;;8.05;;
1400;SDS011;46518;48.842;8.926;2023-09-08T05:07:59;8.90;;;7.95;;
1400;SDS011;46518;48.842;8.926;2023-09-08T05:10:28;10.45;;;8.70;;
1400;SDS011;46518;48.842;8.926;2023-09-08T05:12:57;9.32;;;8.43;;
1400;SDS011;46518;48.842;8.926;2023-09-08T05:15:26;8.18;;;7.47;;
1400;SDS011;46518;48.842;8.926;2023-09-08T05:17:55;11.02;;;8.43;;
1400;SDS011;46518;48.842;8.926;2023-09-08T05:20:24;9.18;;;8.38;;
1400;SDS011;46518;48.842;8.926;2023-09-08T05:22:53;10.02;;;7.93;;
1400;SDS011;46518;48.842;8.926;2023-09-08T05:25:22;13.35;;;9.25;;
1400;SDS011;46518;48.842;8.926;2023-09-08T05:27:51;9.43;;;8.63;;
1400;SDS011;46518;48.842;8.926;2023-09-08T05:30:20;9.05;;;8.25;;
1400;SDS011;46518;48.842;8.926;2023-09-08T05:32:48;9.23;;;8.32;;
1400;SDS011;46518;48.842;8.926;2023-09-08T05:35:17;11.80;;;8.32;;
1400;SDS011;46518;48.842;8.926;2023-09-08T05:37:46;10.18;;;8.85;;
1400;SDS011;46518;48.842;8.926;2023-09-08T05:40:15;9.27;;;8.35;;
1400;SDS011;46518;48.842;8.926;2023-09-08T05:42:44;8.73;;;7.82;;
1400;SDS011;46518;48.842;8.926;2023-09-08T05:45:12;10.23;;;9.18;;
1400;SDS011;46518;48.842;8.926;2023-09-08T05:47:41;10.23;;;9.15;;
1400;SDS011;46518;48.842;8.926;2023-09-08T05:50:10;10.57;;;8.73;;
1400;SDS011;46518;48.842;8.926;2023-09-08T05:52:38;10.25;;;8.90;;
1400;SDS011;46518;48.842;8.926;2023-09-08T05:55:08;9.27;;;8.20;;
1400;SDS011;46518;48.842;8.926;2023-09-08T05:57:36;9.18;;;8.27;;
1400;SDS011;46518;48.842;8.926;2023-09-08T06:00:07;9.05;;;8.05;;
1400;SDS011;46518;48.842;8.926;2023-09-08T06:02:41;9.95;;;8.55;;
1400;SDS011;46518;48.842;8.926;2023-09-08T06:05:12;10.77;;;8.73;;
1400;SDS011;46518;48.842;8.926;2023-09-08T06:07:40;10.80;;;9.10;;
1400;SDS011;46518;48.842;8.926;2023-09-08T06:10:28;9.82;;;8.93;;
1400;SDS011;46518;48.842;8.926;2023-09-08T06:12:58;9.48;;;8.65;;
1400;SDS011;46518;48.842;8.926;2023-09-08T06:15:28;10.85;;;8.95;;
1400;SDS011;46518;48.842;8.926;2023-09-08T06:17:56;10.43;;;9.02;;
1400;SDS011;46518;48.842;8.926;2023-09-08T06:20:25;11.10;;;9.93;;
1400;SDS011;46518;48.842;8.926;2023-09-08T06:22:54;8.70;;;7.90;;
1400;SDS011;46518;48.842;8.926;2023-09-08T06:25:22;9.88;;;9.02;;
1400;SDS011;46518;48.842;8.926;2023-09-08T06:27:51;11.82;;;9.85;;
1400;SDS011;46518;48.842;8.926;2023-09-08T06:30:19;8.52;;;7.72;;
1400;SDS011;46518;48.842;8.926;2023-09-08T06:32:49;9.60;;;8.75;;
1400;SDS011;46518;48.842;8.926;2023-09-08T06:35:18;11.65;;;9.20;;
1400;SDS011;46518;48.842;8.926;2023-09-08T06:37:47;10.15;;;8.88;;
1400;SDS011;46518;48.842;8.926;2023-09-08T06:40:15;9.23;;;8.25;;
1400;SDS011;46518;48.842;8.926;2023-09-08T06:42:44;10.07;;;8.85;;
1400;SDS011;46518;48.842;8.926;2023-09-08T06:45:24;9.60;;;8.60;;
1400;SDS011;46518;48.842;8.926;2023-09-08T06:47:54;8.63;;;7.80;;
1400;SDS011;46518;48.842;8.926;2023-09-08T06:50:23;11.05;;;9.25;;
1400;SDS011;46518;48.842;8.926;2023-09-08T06:52:53;11.30;;;10.00;;
1400;SDS011;46518;48.842;8.926;2023-09-08T06:55:22;10.30;;;9.30;;
1400;SDS011;46518;48.842;8.926;2023-09-08T06:57:50;9.23;;;8.23;;
1400;SDS011;46518;48.842;8.926;2023-09-08T07:00:19;8.52;;;7.63;;
1400;SDS011;46518;48.842;8.926;2023-09-08T07:02:47;10.13;;;9.13;;
1400;SDS011;46518;48.842;8.926;2023-09-08T07:05:19;10.50;;;9.48;;
1400;SDS011;46518;48.842;8.926;2023-09-08T07:07:47;9.37;;;8.47;;
1400;SDS011;46518;48.842;8.926;2023-09-08T07:10:16;10.93;;;9.63;;
1400;SDS011;46518;48.842;8.926;2023-09-08T07:12:46;9.85;;;8.85;;
1400;SDS011;46518;48.842;8.926;2023-09-08T07:15:15;10.30;;;8.70;;
1400;SDS011;46518;48.842;8.926;2023-09-08T07:17:45;8.93;;;8.03;;
1400;SDS011;46518;48.842;8.926;2023-09-08T07:20:14;9.20;;;8.30;;
1400;SDS011;46518;48.842;8.926;2023-09-08T07:22:43;10.10;;;9.10;;
1400;SDS011;46518;48.842;8.926;2023-09-08T07:25:14;9.90;;;8.90;;
1400;SDS011;46518;48.842;8.926;2023-09-08T07:27:42;9.03;;;8.20;;
1400;SDS011;46518;48.842;8.926;2023-09-08T07:30:12;10.00;;;8.33;;
1400;SDS011;46518;48.842;8.926;2023-09-08T07:32:41;9.27;;;8.43;;
1400;SDS011;46518;48.842;8.926;2023-09-08T07:35:09;8.87;;;8.00;;
1400;SDS011;46518;48.842;8.926;2023-09-08T07:37:44;11.13;;;8.90;;
1400;SDS011;46518;48.842;8.926;2023-09-08T07:40:12;8.87;;;8.07;;
1400;SDS011;46518;48.842;8.926;2023-09-08T07:42:41;8.50;;;7.70;;
1400;SDS011;46518;48.842;8.926;2023-09-08T07:45:10;8.47;;;7.77;;
1400;SDS011;46518;48.842;8.926;2023-09-08T07:47:38;9.10;;;8.10;;
1400;SDS011;46518;48.842;8.926;2023-09-08T07:50:17;9.00;;;8.10;;
1400;SDS011;46518;48.842;8.926;2023-09-08T07:52:49;9.03;;;8.13;;
1400;SDS011;46518;48.842;8.926;2023-09-08T07:55:18;9.27;;;8.47;;
1400;SDS011;46518;48.842;8.926;2023-09-08T07:57:50;8.63;;;7.90;;
1400;SDS011;46518;48.842;8.926;2023-09-08T08:00:19;9.13;;;8.33;;
1400;SDS011;46518;48.842;8.926;2023-09-08T08:02:48;8.37;;;7.67;;
1400;SDS011;46518;48.842;8.926;2023-09-08T08:05:18;9.37;;;8.53;;
1400;SDS011;46518;48.842;8.926;2023-09-08T08:07:46;9.30;;;8.40;;
1400;SDS011;46518;48.842;8.926;2023-09-08T08:10:16;8.93;;;7.63;;
1400;SDS011;46518;48.842;8.926;2023-09-08T08:12:45;10.53;;;8.13;;
1400;SDS011;46518;48.842;8.926;2023-09-08T08:15:14;9.50;;;8.60;;
1400;SDS011;46518;48.842;8.926;2023-09-08T08:17:42;9.20;;;8.30;;
1400;SDS011;46518;48.842;8.926;2023-09-08T08:20:11;10.57;;;9.57;;
1400;SDS011;46518;48.842;8.926;2023-09-08T08:22:44;8.97;;;8.20;;
1400;SDS011;46518;48.842;8.926;2023-09-08T08:25:14;10.70;;;9.00;;
1400;SDS011;46518;48.842;8.926;2023-09-08T08:27:43;9.10;;;8.20;;
1400;SDS011;46518;48.842;8.926;2023-09-08T08:30:12;11.60;;;9.00;;
1400;SDS011;46518;48.842;8.926;2023-09-08T08:32:43;10.53;;;9.43;;
1400;SDS011;46518;48.842;8.926;2023-09-08T08:35:12;8.50;;;7.77;;
1400;SDS011;46518;48.842;8.926;2023-09-08T08:37:40;10.00;;;9.10;;
1400;SDS011;46518;48.842;8.926;2023-09-08T08:40:10;8.90;;;8.20;;
1400;SDS011;46518;48.842;8.926;2023-09-08T08:42:41;9.37;;;8.47;;
1400;SDS011;46518;48.842;8.926;2023-09-08T08:45:10;9.50;;;8.60;;
1400;SDS011;46518;48.842;8.926;2023-09-08T08:47:39;9.27;;;8.37;;
1400;SDS011;46518;48.842;8.926;2023-09-08T08:50:09;8.87;;;8.07;;
1400;SDS011;46518;48.842;8.926;2023-09-08T08:52:38;9.03;;;8.10;;
1400;SDS011;46518;48.842;8.926;2023-09-08T08:55:07;10.20;;;9.30;;
1400;SDS011;46518;48.842;8.926;2023-09-08T08:57:36;8.80;;;8.10;;
1400;SDS011;46518;48.842;8.926;2023-09-08T09:00:08;8.80;;;8.10;;
1400;SDS011;46518;48.842;8.926;2023-09-08T09:02:39;11.33;;;10.23;;
1400;SDS011;46518;48.842;8.926;2023-09-08T09:05:11;10.70;;;9.70;;
1400;SDS011;46518;48.842;8.926;2023-09-08T09:07:41;10.93;;;9.83;;
1400;SDS011;46518;48.842;8.926;2023-09-08T09:10:10;8.70;;;7.87;;
1400;SDS011;46518;48.842;8.926;2023-09-08T09:12:37;11.50;;;9.93;;
1400;SDS011;46518;48.842;8.926;2023-09-08T09:15:08;10.53;;;9.33;;
1400;SDS011;46518;48.842;8.926;2023-09-08T09:17:38;10.80;;;9.80;;
1400;SDS011;46518;48.842;8.926;2023-09-08T09:20:13;9.63;;;8.83;;
1400;SDS011;46518;48.842;8.926;2023-09-08T09:22:44;9.40;;;8.67;;
1400;SDS011;46518;48.842;8.926;2023-09-08T09:25:20;9.60;;;8.43;;
1400;SDS011;46518;48.842;8.926;2023-09-08T09:27:53;9.80;;;8.87;;
1400;SDS011;46518;48.842;8.926;2023-09-08T09:30:24;9.47;;;8.67;;
1400;SDS011;46518;48.842;8.926;2023-09-08T09:32:59;9.90;;;8.90;;
1400;SDS011;46518;48.842;8.926;2023-09-08T09:35:41;10.37;;;9.30;;
1400;SDS011;46518;48.842;8.926;2023-09-08T09:38:11;8.87;;;8.07;;
1400;SDS011;46518;48.842;8.926;2023-09-08T09:40:40;11.13;;;9.50;;
1400;SDS011;46518;48.842;8.926;2023-09-08T09:43:09;9.87;;;8.87;;
1400;SDS011;46518;48.842;8.926;2023-09-08T09:45:41;9.70;;;8.80;;
1400;SDS011;46518;48.842;8.926;2023-09-08T09:48:10;9.57;;;8.67;;
1400;SDS011;46518;48.842;8.926;2023-09-08T09:50:40;9.70;;;8.90;;
1400;SDS011;46518;48.842;8.926;2023-09-08T09:53:10;9.30;;;8.47;;
1400;SDS011;46518;48.842;8.926;2023-09-08T09:55:40;9.07;;;8.27;;
1400;SDS011;46518;48.842;8.926;2023-09-08T09:58:10;11.30;;;10.13;;
1400;SDS011;46518;48.842;8.926;2023-09-08T10:00:40;9.73;;;8.90;;
1400;SDS011;46518;48.842;8.926;2023-09-08T10:03:15;9.63;;;8.80;;
1400;SDS011;46518;48.842;8.926;2023-09-08T10:05:43;10.60;;;9.67;;
1400;SDS011;46518;48.842;8.926;2023-09-08T10:08:15;9.27;;;8.30;;
1400;SDS011;46518;48.842;8.926;2023-09-08T10:10:44;11.70;;;10.70;;
1400;SDS011;46518;48.842;8.926;2023-09-08T10:13:15;11.30;;;10.10;;
1400;SDS011;46518;48.842;8.926;2023-09-08T10:15:50;10.80;;;9.80;;
1400;SDS011;46518;48.842;8.926;2023-09-08T10:18:20;10.17;;;9.27;;
1400;SDS011;46518;48.842;8.926;2023-09-08T10:20:50;9.40;;;8.60;;
1400;SDS011;46518;48.842;8.926;2023-09-08T10:23:22;9.30;;;8.40;;
1400;SDS011;46518;48.842;8.926;2023-09-08T10:25:56;11.27;;;10.07;;
1400;SDS011;46518;48.842;8.926;2023-09-08T10:28:29;12.13;;;10.50;;
1400;SDS011;46518;48.842;8.926;2023-09-08T10:31:01;9.60;;;8.70;;
1400;SDS011;46518;48.842;8.926;2023-09-08T10:33:30;9.87;;;8.97;;
1400;SDS011;46518;48.842;8.926;2023-09-08T10:36:00;10.33;;;9.33;;
1400;SDS011;46518;48.842;8.926;2023-09-08T10:38:32;10.93;;;9.70;;
1400;SDS011;46518;48.842;8.926;2023-09-08T10:44:01;11.13;;;10.13;;
1400;SDS011;46518;48.842;8.926;2023-09-08T10:46:33;10.53;;;8.90;;
1400;SDS011;46518;48.842;8.926;2023-09-08T10:49:02;10.63;;;9.57;;
1400;SDS011;46518;48.842;8.926;2023-09-08T10:51:34;11.13;;;8.43;;
1400;SDS011;46518;48.842;8.926;2023-09-08T10:54:05;10.10;;;9.20;;
1400;SDS011;46518;48.842;8.926;2023-09-08T10:56:53;10.50;;;9.67;;
1400;SDS011;46518;48.842;8.926;2023-09-08T10:59:27;10.20;;;9.17;;
1400;SDS011;46518;48.842;8.926;2023-09-08T11:01:57;10.37;;;9.37;;
1400;SDS011;46518;48.842;8.926;2023-09-08T11:04:26;11.20;;;10.20;;
1400;SDS011;46518;48.842;8.926;2023-09-08T11:06:56;10.20;;;9.10;;
1400;SDS011;46518;48.842;8.926;2023-09-08T11:09:24;9.70;;;8.90;;
1400;SDS011;46518;48.842;8.926;2023-09-08T11:11:53;10.77;;;9.73;;
1400;SDS011;46518;48.842;8.926;2023-09-08T11:14:21;10.20;;;9.40;;
1400;SDS011;46518;48.842;8.926;2023-09-08T11:16:50;9.70;;;8.87;;
1400;SDS011;46518;48.842;8.926;2023-09-08T11:19:19;9.90;;;9.00;;
1400;SDS011;46518;48.842;8.926;2023-09-08T11:21:48;9.83;;;9.03;;
1400;SDS011;46518;48.842;8.926;2023-09-08T11:24:16;9.73;;;8.73;;
1400;SDS011;46518;48.842;8.926;2023-09-08T11:26:45;12.20;;;11.20;;
1400;SDS011;46518;48.842;8.926;2023-09-08T11:29:17;9.53;;;8.73;;
1400;SDS011;46518;48.842;8.926;2023-09-08T11:31:51;10.20;;;9.30;;
1400;SDS011;46518;48.842;8.926;2023-09-08T11:34:21;10.40;;;9.40;;
1400;SDS011;46518;48.842;8.926;2023-09-08T11:36:50;9.90;;;8.90;;
1400;SDS011;46518;48.842;8.926;2023-09-08T11:39:22;9.73;;;8.83;;
1400;SDS011;46518;48.842;8.926;2023-09-08T11:41:51;12.63;;;11.13;;
1400;SDS011;46518;48.842;8.926;2023-09-08T11:44:19;9.83;;;8.93;;
1400;SDS011;46518;48.842;8.926;2023-09-08T11:46:48;9.27;;;8.57;;
1400;SDS011;46518;48.842;8.926;2023-09-08T11:49:18;10.17;;;9.23;;
1400;SDS011;46518;48.842;8.926;2023-09-08T11:51:48;9.50;;;8.70;;
1400;SDS011;46518;48.842;8.926;2023-09-08T11:54:17;10.40;;;9.60;;
1400;SDS011;46518;48.842;8.926;2023-09-08T11:56:46;10.23;;;9.20;;
1400;SDS011;46518;48.842;8.926;2023-09-08T11:59:14;10.63;;;9.63;;
1400;SDS011;46518;48.842;8.926;2023-09-08T12:01:43;9.53;;;8.63;;
1400;SDS011;46518;48.842;8.926;2023-09-08T12:04:16;11.67;;;10.40;;
1400;SDS011;46518;48.842;8.926;2023-09-08T12:06:45;10.20;;;9.33;;
1400;SDS011;46518;48.842;8.926;2023-09-08T12:09:15;10.53;;;9.70;;
1400;SDS011;46518;48.842;8.926;2023-09-08T12:11:44;9.90;;;9.00;;
1400;SDS011;46518;48.842;8.926;2023-09-08T12:14:14;10.60;;;9.50;;
1400;SDS011;46518;48.842;8.926;2023-09-08T12:16:43;10.30;;;9.30;;
1400;SDS011;46518;48.842;8.926;2023-09-08T12:22:04;9.57;;;8.77;;
1400;SDS011;46518;48.842;8.926;2023-09-08T12:24:48;9.33;;;8.60;;
1400;SDS011;46518;48.842;8.926;2023-09-08T12:27:18;9.90;;;8.97;;
1400;SDS011;46518;48.842;8.926;2023-09-08T12:29:54;9.87;;;8.97;;
1400;SDS011;46518;48.842;8.926;2023-09-08T12:32:23;9.60;;;8.60;;
1400;SDS011;46518;48.842;8.926;2023-09-08T12:34:53;10.93;;;9.93;;
1400;SDS011;46518;48.842;8.926;2023-09-08T12:37:21;10.50;;;9.60;;
1400;SDS011;46518;48.842;8.926;2023-09-08T12:39:51;11.23;;;10.23;;
1400;SDS011;46518;48.842;8.926;2023-09-08T12:42:19;9.80;;;8.80;;
1400;SDS011;46518;48.842;8.926;2023-09-08T12:44:48;10.57;;;9.57;;
1400;SDS011;46518;48.842;8.926;2023-09-08T12:47:17;8.90;;;8.20;;
1400;SDS011;46518;48.842;8.926;2023-09-08T12:49:46;9.10;;;8.30;;
1400;SDS011;46518;48.842;8.926;2023-09-08T12:52:14;10.00;;;9.13;;
1400;SDS011;46518;48.842;8.926;2023-09-08T12:54:42;13.00;;;9.30;;
1400;SDS011;46518;48.842;8.926;2023-09-08T12:57:12;9.20;;;8.30;;
1400;SDS011;46518;48.842;8.926;2023-09-08T12:59:40;9.00;;;8.10;;
1400;SDS011;46518;48.842;8.926;2023-09-08T13:02:08;9.33;;;8.53;;
1400;SDS011;46518;48.842;8.926;2023-09-08T13:04:39;9.30;;;8.13;;
1400;SDS011;46518;48.842;8.926;2023-09-08T13:07:07;9.17;;;8.27;;
1400;SDS011;46518;48.842;8.926;2023-09-08T13:09:35;9.70;;;8.90;;
1400;SDS011;46518;48.842;8.926;2023-09-08T13:12:04;9.33;;;8.53;;
1400;SDS011;46518;48.842;8.926;2023-09-08T13:14:34;9.33;;;8.60;;
1400;SDS011;46518;48.842;8.926;2023-09-08T13:17:02;9.10;;;8.30;;
1400;SDS011;46518;48.842;8.926;2023-09-08T13:19:31;11.10;;;10.30;;
1400;SDS011;46518;48.842;8.926;2023-09-08T13:22:00;10.00;;;9.07;;
1400;SDS011;46518;48.842;8.926;2023-09-08T13:24:28;9.83;;;8.33;;
1400;SDS011;46518;48.842;8.926;2023-09-08T13:26:56;10.10;;;9.20;;
1400;SDS011;46518;48.842;8.926;2023-09-08T13:29:25;10.20;;;9.13;;
1400;SDS011;46518;48.842;8.926;2023-09-08T13:31:55;9.83;;;8.93;;
1400;SDS011;46518;48.842;8.926;2023-09-08T13:34:24;9.70;;;8.80;;
1400;SDS011;46518;48.842;8.926;2023-09-08T13:36:52;9.20;;;8.40;;
1400;SDS011;46518;48.842;8.926;2023-09-08T13:39:20;9.00;;;8.30;;
1400;SDS011;46518;48.842;8.926;2023-09-08T13:41:50;9.03;;;8.37;;
1400;SDS011;46518;48.842;8.926;2023-09-08T13:44:19;10.37;;;9.37;;
1400;SDS011;46518;48.842;8.926;2023-09-08T13:46:49;14.33;;;9.43;;
1400;SDS011;46518;48.842;8.926;2023-09-08T13:49:19;8.97;;;8.27;;
1400;SDS011;46518;48.842;8.926;2023-09-08T13:51:51;8.70;;;7.90;;
1400;SDS011;46518;48.842;8.926;2023-09-08T13:54:23;9.87;;;8.87;;
1400;SDS011;46518;48.842;8.926;2023-09-08T13:56:58;10.13;;;8.70;;
1400;SDS011;46518;48.842;8.926;2023-09-08T13:59:28;9.90;;;9.10;;
1400;SDS011;46518;48.842;8.926;2023-09-08T14:02:02;9.10;;;8.30;;
1400;SDS011;46518;48.842;8.926;2023-09-08T14:04:35;10.13;;;8.50;;
1400;SDS011;46518;48.842;8.926;2023-09-08T14:07:08;10.07;;;8.87;;
1400;SDS011;46518;48.842;8.926;2023-09-08T14:09:43;9.47;;;8.57;;
1400;SDS011;46518;48.842;8.926;2023-09-08T14:12:15;9.23;;;8.40;;
1400;SDS011;46518;48.842;8.926;2023-09-08T14:14:46;9.30;;;8.60;;
1400;SDS011;46518;48.842;8.926;2023-09-08T14:17:15;8.70;;;7.90;;
1400;SDS011;46518;48.842;8.926;2023-09-08T14:19:45;9.47;;;8.57;;
1400;SDS011;46518;48.842;8.926;2023-09-08T14:22:13;9.40;;;8.50;;
1400;SDS011;46518;48.842;8.926;2023-09-08T14:24:41;8.87;;;8.17;;
1400;SDS011;46518;48.842;8.926;2023-09-08T14:27:09;9.27;;;8.40;;
1400;SDS011;46518;48.842;8.926;2023-09-08T14:29:38;9.07;;;8.30;;
1400;SDS011;46518;48.842;8.926;2023-09-08T14:32:06;9.83;;;8.87;;
1400;SDS011;46518;48.842;8.926;2023-09-08T14:34:35;9.17;;;8.43;;
1400;SDS011;46518;48.842;8.926;2023-09-08T14:37:04;9.40;;;8.50;;
1400;SDS011;46518;48.842;8.926;2023-09-08T14:39:37;9.10;;;8.30;;
1400;SDS011;46518;48.842;8.926;2023-09-08T14:42:05;9.03;;;8.23;;
1400;SDS011;46518;48.842;8.926;2023-09-08T14:44:33;9.27;;;8.40;;
1400;SDS011;46518;48.842;8.926;2023-09-08T14:47:02;8.50;;;7.80;;
1400;SDS011;46518;48.842;8.926;2023-09-08T14:49:30;8.57;;;7.97;;
1400;SDS011;46518;48.842;8.926;2023-09-08T14:51:58;9.90;;;9.10;;
1400;SDS011;46518;48.842;8.926;2023-09-08T14:54:28;9.00;;;8.20;;
1400;SDS011;46518;48.842;8.926;2023-09-08T14:56:57;9.23;;;8.53;;
1400;SDS011;46518;48.842;8.926;2023-09-08T14:59:25;9.10;;;8.30;;
1400;SDS011;46518;48.842;8.926;2023-09-08T15:01:54;9.10;;;8.50;;
1400;SDS011;46518;48.842;8.926;2023-09-08T15:04:23;7.70;;;7.00;;
1400;SDS011;46518;48.842;8.926;2023-09-08T15:06:51;8.40;;;7.70;;
1400;SDS011;46518;48.842;8.926;2023-09-08T15:09:19;8.27;;;7.57;;
1400;SDS011;46518;48.842;8.926;2023-09-08T15:11:49;9.40;;;8.50;;
1400;SDS011;46518;48.842;8.926;2023-09-08T15:14:18;9.03;;;8.23;;
1400;SDS011;46518;48.842;8.926;2023-09-08T15:16:46;11.80;;;10.63;;
1400;SDS011;46518;48.842;8.926;2023-09-08T15:19:15;14.80;;;13.30;;